« Back
NWS Peachtree City, Ga » Text Product » ATL Terminal Aerodrome Forecast


Printer-friendly Version
Current Version              Previous Versions:   1  2  3  4  5  6  7  8  9  

Terminal Aerodrome Forecast

105
FTUS42 KFFC 280700 AAA
TAFATL
TAF AMD
KATL 280750Z 2808/2912 31003KT P6SM FEW250
     FM281400 29004KT P6SM FEW040
     FM281800 26005KT P6SM FEW060
     FM290200 22003KT P6SM FEW250=



USA.gov is the U.S. government's official web portal to all federal, state and local government web resources and services.